الصفحة الرئيسية
METAR-TAF:

METAR-TAF

مطار :

أوشويا, الأرجنتين

دائرة عرض: 54-48S, خط طول: 068-19W, ارتفاع: 16 متر

مراقبة الطقس الحالي

تاريخ ووقت الإصدار 1ساعة و 1 دقيقة قبل الساعة 12:00UTC
ريح 12 عقدة من الغرب/الجنوب الغربي
درجة الحرارة 3°درجة مئوية
الرطوبة 87%
ضغط 998 hPa
الرؤية 10 كم أو أكثر
غيوم مفككة على ارتفاع 3000 قدم
غيوم متفرقة على ارتفاع 8000 قدم
زخات في الجوار

METAR: SAWH 231200Z 25012KT 9999 VCSH BKN030 SCT080 03/01 Q0998

زمن: 10:01 (13:01 UTC)

توقعات

تاريخ ووقت الإصدار 2ساعات و 1 دقيقة قبل الساعة 11:00UTC
التوقعات صالحة من23 الساعة 12 UTC إلى 24 الساعة 12 UTC
ريح 5 عقدة من الجنوب الشرقي
الرؤية 10 كم أو أكثر
ملبد بالغيوم على ارتفاع 2500 قدم
رذاذ
أصبح
من 23 الساعة 13 UTC إلى 23 الساعة 15 UTC
ريح 15 عقدة من الشمال/الشمال الغربي
أصبح
من 24 الساعة 02 UTC إلى 24 الساعة 04 UTC
ريح 20 عقدة من الشمال/الشمال الغربي تتزايد حتى 35 عقدة

TAF: SAWH 231100Z 2312/2412 14005KT 9999 DZ OVC025 TX10/2319Z TN02/2411Z BECMG 2313/2315 34015KT BECMG 2402/2404 34020G35KT

أرصاد الطقس والتوقعات من أكثر من 4000 مطار (تقارير الطقس للمطار METAR والتنبؤ بالطقس بالمطارTAF).

المحطات المتاحة هي النقط الصفراء والحمراء على الخريطة.

حرك المؤشر فوق النقطة لمعرفة اسم المحطة.

ثم انقر لمعرفة أرصاد وتوقعات الطقس.

لتغيير الخارطة: اضغط على الأزرار الخضراء مع رمز الصليب الأسود للتكبير. على الزر الأخضر مع شرطة للتصغير، أو على الأسهم الخضراء للخرائط المجاورة.


METAR-TAF: